Time;durP1;ratioP1;P1;durP2;ratioP2;P2;SDS_P1;SDS_P2;PMS_P1;PMS_P2;Temp;Humidity;BMP_temperature;BMP_pressure;BME280_temperature;BME280_humidity;BME280_pressure;Samples;Min_cycle;Max_cycle;Signal;HPM_P1;HPM_P2
2021/01/01 00:01:46;;;;;;;24.43;20.50;;;2.60;99.90;;;;;;5049995;28;20242;-42
2021/01/01 00:04:14;;;;;;;21.00;18.17;;;2.60;99.90;;;;;;5039448;28;20200;-39
2021/01/01 00:06:46;;;;;;;19.87;17.77;;;2.60;99.90;;;;;;5034610;28;20207;-42
2021/01/01 00:09:13;;;;;;;18.17;16.23;;;2.60;99.90;;;;;;5011263;28;20311;-41
2021/01/01 00:11:39;;;;;;;18.67;15.70;;;2.60;99.90;;;;;;5031353;28;20218;-40
2021/01/01 00:14:08;;;;;;;15.40;13.57;;;2.60;99.90;;;;;;5053313;28;20294;-40
2021/01/01 00:16:34;;;;;;;26.20;22.03;;;2.60;99.90;;;;;;5051212;28;20223;-40
2021/01/01 00:19:02;;;;;;;16.87;15.17;;;2.50;99.90;;;;;;5052854;28;20207;-42
2021/01/01 00:21:29;;;;;;;18.87;16.30;;;2.50;99.90;;;;;;5058596;28;20725;-44
2021/01/01 00:23:56;;;;;;;20.07;16.83;;;2.50;99.90;;;;;;5046162;28;20212;-39
2021/01/01 00:26:23;;;;;;;19.40;16.57;;;2.50;99.90;;;;;;5037819;28;20226;-40
2021/01/01 00:28:50;;;;;;;19.40;16.67;;;2.40;99.90;;;;;;5054702;28;20569;-41
2021/01/01 00:31:18;;;;;;;18.37;15.73;;;2.50;99.90;;;;;;5061420;28;20230;-42
2021/01/01 00:33:45;;;;;;;18.20;15.27;;;2.40;99.90;;;;;;5041914;28;20207;-40
2021/01/01 00:36:13;;;;;;;19.63;16.10;;;2.40;99.90;;;;;;5043124;28;20234;-42
2021/01/01 00:38:46;;;;;;;21.23;16.33;;;2.50;99.90;;;;;;5045209;28;20202;-42
2021/01/01 00:41:13;;;;;;;23.27;18.97;;;2.60;99.90;;;;;;5064899;28;20214;-40
2021/01/01 00:43:39;;;;;;;19.02;15.35;;;2.60;99.90;;;;;;5063622;28;20195;-40
2021/01/01 00:46:06;;;;;;;21.10;16.73;;;2.60;99.90;;;;;;5042071;28;20290;-40
2021/01/01 00:48:33;;;;;;;24.60;20.57;;;2.50;99.90;;;;;;5040622;28;20258;-40
2021/01/01 00:50:59;;;;;;;23.50;18.83;;;2.40;99.90;;;;;;5037004;28;20258;-40
2021/01/01 00:53:27;;;;;;;22.87;18.30;;;2.40;99.90;;;;;;5039785;28;20238;-40
2021/01/01 00:55:53;;;;;;;21.17;17.77;;;2.30;99.90;;;;;;5046691;28;20551;-40
2021/01/01 00:58:20;;;;;;;19.87;17.03;;;2.20;99.90;;;;;;5039179;28;20242;-39
2021/01/01 01:00:46;;;;;;;21.77;16.47;;;2.20;99.90;;;;;;5037084;28;20302;-40
2021/01/01 01:03:13;;;;;;;24.37;18.63;;;2.20;99.90;;;;;;5037099;28;20389;-41
2021/01/01 01:05:39;;;;;;;22.02;19.25;;;2.30;99.90;;;;;;5039797;28;20210;-43
2021/01/01 01:08:06;;;;;;;23.20;17.08;;;2.30;99.90;;;;;;5040930;28;20458;-43
2021/01/01 01:10:33;;;;;;;31.02;26.25;;;2.30;99.90;;;;;;5056510;28;20279;-43
2021/01/01 01:13:00;;;;;;;22.47;17.70;;;2.30;99.90;;;;;;5056334;28;20253;-42
2021/01/01 01:15:26;;;;;;;19.87;17.80;;;2.30;99.90;;;;;;5054891;28;20203;-42
2021/01/01 01:17:53;;;;;;;23.07;20.00;;;2.30;99.90;;;;;;5056418;28;20278;-42
2021/01/01 01:20:19;;;;;;;25.52;20.15;;;2.10;99.90;;;;;;5056513;28;20670;-42
2021/01/01 01:22:46;;;;;;;26.80;21.03;;;2.00;99.90;;;;;;5049804;28;20701;-42
2021/01/01 01:25:13;;;;;;;25.50;20.20;;;2.00;99.90;;;;;;5037601;28;20209;-42
2021/01/01 01:27:40;;;;;;;22.93;18.83;;;2.00;99.90;;;;;;5042965;28;20210;-43
2021/01/01 01:30:08;;;;;;;24.33;19.80;;;2.10;99.90;;;;;;5055581;28;20242;-42
2021/01/01 01:32:34;;;;;;;23.60;19.70;;;2.10;99.90;;;;;;5044425;28;20331;-43
2021/01/01 01:35:01;;;;;;;23.00;19.13;;;2.20;99.90;;;;;;5036320;28;20191;-42
2021/01/01 01:37:27;;;;;;;25.25;19.98;;;2.30;99.90;;;;;;5051664;28;20697;-43
2021/01/01 01:39:54;;;;;;;24.33;19.73;;;2.30;99.90;;;;;;5055601;28;20226;-42
2021/01/01 01:42:20;;;;;;;23.40;19.93;;;2.30;99.90;;;;;;5051891;28;20215;-42
2021/01/01 01:44:48;;;;;;;27.37;20.33;;;2.20;99.90;;;;;;5053355;28;20207;-46
2021/01/01 01:47:17;;;;;;;30.97;26.03;;;2.20;99.90;;;;;;5051032;28;20611;-43
2021/01/01 01:49:44;;;;;;;35.33;24.87;;;2.30;99.90;;;;;;5053144;28;20290;-43
2021/01/01 01:52:11;;;;;;;26.87;21.83;;;2.30;99.90;;;;;;5034589;28;20929;-42
2021/01/01 01:54:39;;;;;;;25.20;21.67;;;2.40;99.90;;;;;;5032422;28;20727;-42
2021/01/01 01:57:07;;;;;;;23.60;20.30;;;2.50;99.90;;;;;;5025836;28;20386;-43
2021/01/01 01:59:33;;;;;;;24.53;21.17;;;2.60;99.90;;;;;;5014200;28;20589;-43
2021/01/01 02:02:01;;;;;;;25.40;20.33;;;2.50;99.90;;;;;;5032454;28;20376;-42
2021/01/01 02:04:27;;;;;;;22.43;17.73;;;2.60;99.90;;;;;;5016371;28;20212;-42
2021/01/01 02:06:54;;;;;;;23.63;20.23;;;2.50;99.90;;;;;;5025407;28;20306;-43
2021/01/01 02:09:21;;;;;;;22.00;18.53;;;2.50;99.90;;;;;;5043884;28;20679;-42
2021/01/01 02:11:49;;;;;;;22.93;19.17;;;2.40;99.90;;;;;;5030778;28;20231;-42
2021/01/01 02:14:15;;;;;;;24.00;19.57;;;2.40;99.90;;;;;;5026801;28;20671;-43
2021/01/01 02:16:43;;;;;;;25.57;20.50;;;2.40;99.90;;;;;;5028681;28;20204;-42
2021/01/01 02:19:12;;;;;;;24.50;19.70;;;2.30;99.90;;;;;;5014125;28;20510;-43
2021/01/01 02:21:41;;;;;;;23.03;19.43;;;2.30;99.90;;;;;;5014491;28;20220;-42
2021/01/01 02:24:10;;;;;;;23.70;18.70;;;2.20;99.90;;;;;;5033622;28;20269;-42
2021/01/01 02:26:37;;;;;;;27.47;21.30;;;2.20;99.90;;;;;;5035230;28;20282;-42
2021/01/01 02:29:04;;;;;;;22.02;19.52;;;2.20;99.90;;;;;;5033272;28;20211;-43
2021/01/01 02:31:30;;;;;;;23.53;20.33;;;2.10;99.90;;;;;;5032483;28;20255;-44
2021/01/01 02:33:57;;;;;;;29.33;22.03;;;2.00;99.90;;;;;;5032141;28;20220;-42
2021/01/01 02:36:24;;;;;;;22.23;19.13;;;2.00;99.90;;;;;;5032872;28;20686;-42
2021/01/01 02:38:50;;;;;;;23.93;19.70;;;1.90;99.90;;;;;;5047837;28;20654;-42
2021/01/01 02:41:18;;;;;;;21.47;17.87;;;1.80;99.90;;;;;;5046938;28;20223;-43
2021/01/01 02:43:44;;;;;;;28.47;22.77;;;1.90;99.90;;;;;;5051837;28;20282;-41
2021/01/01 02:46:11;;;;;;;28.90;22.00;;;1.90;99.90;;;;;;5036820;28;20203;-42
2021/01/01 02:48:37;;;;;;;30.10;22.97;;;1.80;99.90;;;;;;5033436;28;20291;-42
2021/01/01 02:51:04;;;;;;;25.73;21.10;;;1.90;99.90;;;;;;5047934;28;20227;-42
2021/01/01 02:53:31;;;;;;;24.70;19.60;;;1.90;99.90;;;;;;5038598;28;20218;-43
2021/01/01 02:55:57;;;;;;;26.07;20.67;;;1.80;99.90;;;;;;5029947;28;20200;-42
2021/01/01 02:58:25;;;;;;;26.08;19.85;;;1.70;99.90;;;;;;5029764;28;20211;-43
2021/01/01 03:00:52;;;;;;;21.93;19.53;;;1.80;99.90;;;;;;5030168;28;20216;-42
2021/01/01 03:03:18;;;;;;;26.63;19.50;;;1.90;99.90;;;;;;5029574;28;20215;-43
2021/01/01 03:05:45;;;;;;;33.23;23.17;;;2.00;99.90;;;;;;5030795;28;20225;-43
2021/01/01 03:08:12;;;;;;;26.23;23.23;;;2.00;99.90;;;;;;5031508;28;20274;-43
2021/01/01 03:10:38;;;;;;;29.63;23.00;;;2.10;99.90;;;;;;5013501;28;20314;-42
2021/01/01 03:13:05;;;;;;;29.67;22.53;;;2.20;99.90;;;;;;5029957;28;20216;-41
2021/01/01 03:15:32;;;;;;;24.60;20.53;;;2.20;99.90;;;;;;5033283;28;20199;-41
2021/01/01 03:17:59;;;;;;;25.23;19.37;;;2.20;99.90;;;;;;5030236;28;20200;-40
2021/01/01 03:20:25;;;;;;;22.50;19.07;;;2.20;99.90;;;;;;5039395;28;20290;-42
2021/01/01 03:22:52;;;;;;;20.17;17.73;;;2.20;99.90;;;;;;5041891;28;20184;-41
2021/01/01 03:25:18;;;;;;;22.93;19.20;;;2.30;99.90;;;;;;5040114;28;20286;-42
2021/01/01 03:27:45;;;;;;;22.37;19.40;;;2.30;99.90;;;;;;5042086;28;20561;-41
2021/01/01 03:30:12;;;;;;;20.53;18.00;;;2.30;99.90;;;;;;5039168;28;20191;-42
2021/01/01 03:32:40;;;;;;;20.97;17.90;;;2.40;99.90;;;;;;5041140;28;20654;-41
2021/01/01 03:35:07;;;;;;;24.77;18.27;;;2.40;99.90;;;;;;5040734;28;20196;-41
2021/01/01 03:37:35;;;;;;;20.43;18.23;;;2.40;99.90;;;;;;5041328;28;20219;-42
2021/01/01 03:40:03;;;;;;;19.63;17.30;;;2.30;99.90;;;;;;5039694;28;20240;-42
2021/01/01 03:42:29;;;;;;;20.13;16.50;;;2.20;99.90;;;;;;5022736;28;20211;-42
2021/01/01 03:44:56;;;;;;;18.87;16.53;;;2.10;99.90;;;;;;5039621;28;20770;-41
2021/01/01 03:47:22;;;;;;;20.40;17.60;;;1.90;99.90;;;;;;5039189;28;20227;-41
2021/01/01 03:49:50;;;;;;;24.93;19.03;;;1.80;99.90;;;;;;5040436;28;20293;-42
2021/01/01 03:52:16;;;;;;;23.40;16.93;;;1.80;99.90;;;;;;5040200;28;20706;-41
2021/01/01 03:54:43;;;;;;;22.33;17.43;;;1.70;99.90;;;;;;5039911;28;20202;-41
2021/01/01 03:57:09;;;;;;;18.87;16.77;;;1.70;99.90;;;;;;5039925;28;20211;-41
2021/01/01 03:59:36;;;;;;;23.40;17.35;;;1.70;99.90;;;;;;5038328;28;20598;-41
2021/01/01 04:02:02;;;;;;;25.73;19.83;;;1.70;99.90;;;;;;5041758;28;20227;-42
2021/01/01 04:04:29;;;;;;;24.07;19.73;;;1.70;99.90;;;;;;5040266;28;20200;-42
2021/01/01 04:06:56;;;;;;;22.73;18.80;;;1.70;99.90;;;;;;5040416;28;20463;-42
2021/01/01 04:09:22;;;;;;;20.83;17.60;;;1.60;99.90;;;;;;5039929;28;20226;-42
2021/01/01 04:11:49;;;;;;;22.95;18.60;;;1.60;99.90;;;;;;5040660;28;20247;-41
2021/01/01 04:14:16;;;;;;;22.90;18.87;;;1.50;99.90;;;;;;5040129;28;20207;-41
2021/01/01 04:16:46;;;;;;;22.27;19.97;;;1.50;99.90;;;;;;5037390;28;20222;-45
2021/01/01 04:19:12;;;;;;;20.17;16.87;;;1.40;99.90;;;;;;5040870;28;20670;-41
2021/01/01 04:21:45;;;;;;;21.63;18.93;;;1.30;99.90;;;;;;5037460;28;20219;-42
2021/01/01 04:24:13;;;;;;;23.53;18.47;;;1.30;99.90;;;;;;5040401;28;20342;-41
2021/01/01 04:26:41;;;;;;;23.37;18.60;;;1.40;99.90;;;;;;5040646;28;20203;-41
2021/01/01 04:29:08;;;;;;;23.00;18.77;;;1.50;99.90;;;;;;5041197;28;20634;-42
2021/01/01 04:31:36;;;;;;;26.43;19.47;;;1.60;99.90;;;;;;5037235;28;20649;-42
2021/01/01 04:34:03;;;;;;;24.13;18.43;;;1.70;99.90;;;;;;5041331;28;20346;-41
2021/01/01 04:36:29;;;;;;;24.10;19.70;;;1.80;99.90;;;;;;5036528;28;20750;-41
2021/01/01 04:38:56;;;;;;;23.07;19.00;;;1.90;99.90;;;;;;5039700;28;20234;-42
2021/01/01 04:41:24;;;;;;;21.80;18.17;;;2.00;99.90;;;;;;5035994;28;20218;-42
2021/01/01 04:43:51;;;;;;;22.40;17.83;;;2.00;99.90;;;;;;5019013;28;20290;-42
2021/01/01 04:46:18;;;;;;;19.20;17.17;;;2.00;99.90;;;;;;5038300;28;20666;-42
2021/01/01 04:48:46;;;;;;;20.97;17.70;;;2.00;99.90;;;;;;5038116;28;20796;-42
2021/01/01 04:51:14;;;;;;;21.17;17.03;;;2.00;99.90;;;;;;5039914;28;20251;-42
2021/01/01 04:53:41;;;;;;;22.30;15.10;;;2.00;99.90;;;;;;5036586;28;20253;-41
2021/01/01 04:56:08;;;;;;;21.97;17.83;;;2.00;99.90;;;;;;5033441;28;20211;-41
2021/01/01 04:58:36;;;;;;;21.48;16.33;;;2.00;99.90;;;;;;5012529;28;20723;-42
2021/01/01 05:01:04;;;;;;;17.90;14.90;;;2.00;99.90;;;;;;5030387;28;20335;-42
2021/01/01 05:03:30;;;;;;;22.13;16.63;;;1.90;99.90;;;;;;5044123;22;21332;-39
2021/01/01 05:05:57;;;;;;;21.00;17.73;;;1.80;99.90;;;;;;5047720;28;20573;-39
2021/01/01 05:08:24;;;;;;;21.23;16.47;;;1.80;99.90;;;;;;5020845;28;20195;-40
2021/01/01 05:10:51;;;;;;;23.83;17.13;;;1.80;99.90;;;;;;5034354;28;20227;-39
2021/01/01 05:13:20;;;;;;;19.77;16.67;;;1.90;99.90;;;;;;5032285;28;20228;-40
2021/01/01 05:15:49;;;;;;;22.67;17.77;;;2.00;99.90;;;;;;5033316;28;20325;-39
2021/01/01 05:18:20;;;;;;;23.87;18.73;;;1.90;99.90;;;;;;5035320;28;20219;-40
2021/01/01 05:20:47;;;;;;;23.83;19.37;;;1.80;99.90;;;;;;5034461;28;20301;-39
2021/01/01 05:23:22;;;;;;;25.53;21.23;;;1.90;99.90;;;;;;5033454;28;20654;-40
2021/01/01 05:26:08;;;;;;;27.17;20.43;;;1.80;99.90;;;;;;5033499;28;20195;-38
2021/01/01 05:28:54;;;;;;;24.77;19.47;;;1.80;99.90;;;;;;5032286;28;20211;-39
2021/01/01 05:31:23;;;;;;;24.93;20.67;;;1.90;99.90;;;;;;5033315;28;20250;-39
2021/01/01 05:33:59;;;;;;;30.33;21.63;;;1.80;99.90;;;;;;5034168;28;20203;-39
2021/01/01 05:36:31;;;;;;;28.43;21.93;;;1.80;99.90;;;;;;5034175;28;20570;-38
2021/01/01 05:38:58;;;;;;;27.43;20.67;;;1.80;99.90;;;;;;5033426;28;20613;-39
2021/01/01 05:41:33;;;;;;;29.07;21.00;;;1.80;99.90;;;;;;5033564;28;20212;-41
2021/01/01 05:44:14;;;;;;;27.70;22.03;;;1.90;99.90;;;;;;5033385;28;20235;-38
2021/01/01 05:47:02;;;;;;;26.87;21.90;;;1.90;99.90;;;;;;5031590;28;20207;-46
2021/01/01 05:49:31;;;;;;;28.47;20.50;;;2.10;99.90;;;;;;5033248;28;20298;-39
2021/01/01 05:52:12;;;;;;;35.40;23.90;;;2.10;99.90;;;;;;5033199;28;20663;-40
2021/01/01 05:54:40;;;;;;;32.33;23.03;;;2.00;99.90;;;;;;5032973;28;20200;-38
2021/01/01 05:57:09;;;;;;;25.87;20.13;;;1.90;99.90;;;;;;5032803;28;20204;-43
2021/01/01 05:59:37;;;;;;;30.10;22.07;;;1.80;99.90;;;;;;5033430;28;20663;-42
2021/01/01 06:02:06;;;;;;;28.57;22.13;;;1.80;99.90;;;;;;5032814;28;20729;-38
2021/01/01 06:04:33;;;;;;;34.07;24.87;;;1.90;99.90;;;;;;5033235;28;20238;-38
2021/01/01 06:07:02;;;;;;;34.77;23.73;;;2.00;99.90;;;;;;5035845;28;20271;-40
2021/01/01 06:09:30;;;;;;;36.03;25.33;;;2.00;99.90;;;;;;5033440;28;20307;-38
2021/01/01 06:12:04;;;;;;;29.97;23.43;;;2.20;99.90;;;;;;5032669;28;20212;-38
2021/01/01 06:14:36;;;;;;;28.53;22.80;;;2.10;99.90;;;;;;5032857;28;20203;-38
2021/01/01 06:17:22;;;;;;;35.17;25.63;;;2.10;99.90;;;;;;5033217;28;20196;-39
2021/01/01 06:19:54;;;;;;;32.07;23.73;;;2.10;99.90;;;;;;5032819;28;20196;-40
2021/01/01 06:22:23;;;;;;;29.80;23.23;;;2.10;99.90;;;;;;5033021;28;20227;-40
2021/01/01 06:24:51;;;;;;;31.57;22.67;;;2.20;99.90;;;;;;5032506;28;20188;-39
2021/01/01 06:27:19;;;;;;;30.57;23.50;;;2.20;99.90;;;;;;5031494;28;20204;-39
2021/01/01 06:29:49;;;;;;;31.05;22.90;;;2.10;99.90;;;;;;5032245;28;20285;-40
2021/01/01 06:32:19;;;;;;;36.40;26.60;;;2.10;99.90;;;;;;5032121;28;20252;-40
2021/01/01 06:34:47;;;;;;;31.40;24.00;;;2.10;99.90;;;;;;5032513;28;20203;-38
2021/01/01 06:37:35;;;;;;;32.33;24.90;;;2.10;99.90;;;;;;5032246;28;20220;-38
2021/01/01 06:40:01;;;;;;;31.13;25.33;;;2.20;99.90;;;;;;5025887;28;20207;-39
2021/01/01 06:42:49;;;;;;;31.87;25.43;;;2.30;99.90;;;;;;5031974;28;20689;-42
2021/01/01 06:45:35;;;;;;;32.30;25.27;;;2.20;99.90;;;;;;5032646;28;20230;-39
2021/01/01 06:48:03;;;;;;;35.03;24.37;;;2.30;99.90;;;;;;5032422;28;20728;-38
2021/01/01 06:50:33;;;;;;;30.03;23.53;;;2.30;99.90;;;;;;5031830;28;20207;-42
2021/01/01 06:53:04;;;;;;;31.10;23.73;;;2.20;99.90;;;;;;5032148;28;20258;-39
2021/01/01 06:55:32;;;;;;;29.40;24.70;;;2.20;99.90;;;;;;5032454;28;20238;-39
2021/01/01 06:57:59;;;;;;;32.67;27.00;;;2.30;99.90;;;;;;5031976;28;20240;-39
2021/01/01 07:00:56;;;;;;;32.43;26.10;;;2.30;99.90;;;;;;5032249;28;20207;-41
2021/01/01 07:03:30;;;;;;;31.57;23.10;;;2.20;99.90;;;;;;5031994;28;20204;-39
2021/01/01 07:06:13;;;;;;;33.03;23.87;;;2.00;99.90;;;;;;5032095;28;20306;-39
2021/01/01 07:08:46;;;;;;;31.70;24.40;;;2.10;99.90;;;;;;5029604;28;20299;-42
2021/01/01 07:11:33;;;;;;;34.67;25.00;;;2.10;99.90;;;;;;5031738;28;20227;-38
2021/01/01 07:14:05;;;;;;;32.73;23.03;;;2.20;99.90;;;;;;5031711;28;20206;-40
2021/01/01 07:16:34;;;;;;;31.97;25.13;;;2.20;99.90;;;;;;5031922;28;20287;-38
2021/01/01 07:19:01;;;;;;;32.80;25.53;;;2.10;99.90;;;;;;5013335;28;20211;-40
2021/01/01 07:21:29;;;;;;;33.58;23.23;;;2.20;99.90;;;;;;5031546;28;20220;-42
2021/01/01 07:23:55;;;;;;;33.67;24.80;;;2.30;99.90;;;;;;5031485;28;20675;-39
2021/01/01 07:26:27;;;;;;;32.93;24.63;;;2.30;99.90;;;;;;5030996;28;20203;-39
2021/01/01 07:28:54;;;;;;;33.30;24.53;;;2.40;99.90;;;;;;5031362;28;20356;-39
2021/01/01 07:31:21;;;;;;;36.97;25.70;;;2.30;99.90;;;;;;5030794;28;20250;-41
2021/01/01 07:33:48;;;;;;;34.43;25.30;;;2.10;99.90;;;;;;5030930;28;20258;-41
2021/01/01 07:36:16;;;;;;;33.93;25.70;;;2.20;99.90;;;;;;5030859;28;20269;-40
2021/01/01 07:38:45;;;;;;;41.70;26.30;;;2.10;99.90;;;;;;5030044;28;20200;-40
2021/01/01 07:41:13;;;;;;;37.07;27.33;;;1.90;99.90;;;;;;5030770;28;20725;-39
2021/01/01 07:43:39;;;;;;;37.30;27.30;;;2.00;99.90;;;;;;5030796;28;20192;-39
2021/01/01 07:46:07;;;;;;;36.73;25.70;;;2.20;99.90;;;;;;5031059;28;20578;-39
2021/01/01 07:48:35;;;;;;;38.00;25.73;;;2.20;99.90;;;;;;5031305;28;20227;-41
2021/01/01 07:51:03;;;;;;;36.40;25.67;;;2.20;99.90;;;;;;5031284;28;20262;-39
2021/01/01 07:53:30;;;;;;;37.17;26.23;;;2.30;99.90;;;;;;5031187;28;20262;-39
2021/01/01 07:56:00;;;;;;;35.33;25.37;;;2.40;99.90;;;;;;5031394;28;20256;-39
2021/01/01 07:58:28;;;;;;;35.03;24.73;;;2.40;99.90;;;;;;5013479;28;20197;-39
2021/01/01 08:01:02;;;;;;;36.30;26.37;;;2.50;99.90;;;;;;5031079;28;20226;-43
2021/01/01 08:03:29;;;;;;;32.20;24.23;;;2.40;99.90;;;;;;5031487;28;20224;-42
2021/01/01 08:05:55;;;;;;;35.43;26.03;;;2.40;99.90;;;;;;5032612;28;20237;-40
2021/01/01 08:08:23;;;;;;;34.27;24.13;;;2.40;99.90;;;;;;5033349;28;20259;-40
2021/01/01 08:10:51;;;;;;;36.70;27.50;;;2.50;99.90;;;;;;5033008;28;20578;-39
2021/01/01 08:13:20;;;;;;;31.77;24.13;;;2.60;99.90;;;;;;5032761;28;20220;-40
2021/01/01 08:15:48;;;;;;;31.93;24.53;;;2.70;99.90;;;;;;5032700;28;20208;-40
2021/01/01 08:18:15;;;;;;;30.53;24.17;;;2.40;99.90;;;;;;5033607;28;20208;-39
2021/01/01 08:20:46;;;;;;;31.77;22.70;;;2.40;99.90;;;;;;5033905;28;20223;-44
2021/01/01 08:23:16;;;;;;;27.95;21.17;;;2.40;99.90;;;;;;5033240;28;20197;-39
2021/01/01 08:25:44;;;;;;;28.23;22.60;;;2.40;99.90;;;;;;5033141;28;20200;-40
2021/01/01 08:28:12;;;;;;;29.50;21.03;;;2.60;99.90;;;;;;5030019;28;20279;-40
2021/01/01 08:30:41;;;;;;;25.67;20.33;;;2.50;99.90;;;;;;5030342;28;20269;-40
2021/01/01 08:33:08;;;;;;;29.27;21.27;;;2.60;99.90;;;;;;5027392;28;20227;-40
2021/01/01 08:35:35;;;;;;;25.77;20.57;;;2.60;99.90;;;;;;5024215;28;20293;-40
2021/01/01 08:38:16;;;;;;;29.07;21.17;;;2.70;99.90;;;;;;5032551;28;20210;-40
2021/01/01 08:40:43;;;;;;;26.57;19.93;;;2.70;99.90;;;;;;5028856;28;20231;-39
2021/01/01 08:43:10;;;;;;;21.77;17.27;;;2.70;99.90;;;;;;5023754;28;20337;-40
2021/01/01 08:45:38;;;;;;;26.20;19.30;;;2.80;99.90;;;;;;5030179;28;20682;-40
2021/01/01 08:48:12;;;;;;;23.33;17.90;;;2.80;99.90;;;;;;5032552;28;20294;-40
2021/01/01 08:50:44;;;;;;;24.53;18.40;;;2.90;99.90;;;;;;5014958;28;20231;-39
2021/01/01 08:53:11;;;;;;;26.17;18.43;;;2.80;99.90;;;;;;5036275;28;20686;-40
2021/01/01 08:55:38;;;;;;;28.70;20.60;;;2.80;99.90;;;;;;5035131;28;20199;-42
2021/01/01 08:58:06;;;;;;;28.17;21.43;;;2.80;99.90;;;;;;5034623;28;20780;-39
2021/01/01 09:00:33;;;;;;;26.50;19.53;;;2.60;99.90;;;;;;5034930;28;20297;-40
2021/01/01 09:03:00;;;;;;;26.95;20.33;;;2.60;99.90;;;;;;5034286;28;20258;-40
2021/01/01 09:05:28;;;;;;;28.33;20.00;;;2.60;99.90;;;;;;5034345;28;20365;-46
2021/01/01 09:08:08;;;;;;;27.40;20.13;;;2.60;99.90;;;;;;5034693;28;20199;-40
2021/01/01 09:10:36;;;;;;;29.50;19.63;;;2.60;99.90;;;;;;5034837;28;20648;-42
2021/01/01 09:13:16;;;;;;;30.23;21.47;;;2.60;99.90;;;;;;5034350;28;20219;-42
2021/01/01 09:15:43;;;;;;;30.13;21.40;;;2.70;99.90;;;;;;5034265;28;20199;-41
2021/01/01 09:18:11;;;;;;;31.17;21.67;;;2.70;99.90;;;;;;5034244;28;20212;-43
2021/01/01 09:20:42;;;;;;;28.63;21.87;;;2.70;99.90;;;;;;5033957;28;20231;-44
2021/01/01 09:23:10;;;;;;;30.07;20.77;;;2.80;99.90;;;;;;5034333;28;20207;-39
2021/01/01 09:25:37;;;;;;;27.27;19.73;;;2.80;99.90;;;;;;5034113;28;20238;-38
2021/01/01 09:28:04;;;;;;;30.87;21.67;;;2.80;99.90;;;;;;5033967;28;20199;-38
2021/01/01 09:30:32;;;;;;;30.47;21.20;;;2.80;99.90;;;;;;5033664;28;20339;-38
2021/01/01 09:33:00;;;;;;;28.23;21.00;;;2.90;99.90;;;;;;5033905;28;20216;-38
2021/01/01 09:35:27;;;;;;;28.03;21.27;;;2.90;99.90;;;;;;5034470;28;20192;-39
2021/01/01 09:37:56;;;;;;;25.93;18.00;;;2.90;99.90;;;;;;5033848;28;20694;-38
2021/01/01 09:40:24;;;;;;;26.17;19.00;;;3.00;99.90;;;;;;5033816;28;20199;-40
2021/01/01 09:42:51;;;;;;;27.83;19.73;;;3.10;99.90;;;;;;5034327;28;20200;-39
2021/01/01 09:45:17;;;;;;;26.30;20.43;;;3.30;99.90;;;;;;5033661;28;20234;-38
2021/01/01 09:47:44;;;;;;;28.00;19.97;;;3.20;99.90;;;;;;5033957;28;20223;-39
2021/01/01 09:50:11;;;;;;;26.37;17.13;;;3.30;99.90;;;;;;5034116;28;20658;-38
2021/01/01 09:52:38;;;;;;;26.27;18.67;;;3.40;99.90;;;;;;5033026;28;20247;-39
2021/01/01 09:55:08;;;;;;;25.20;18.73;;;3.40;99.90;;;;;;5033701;28;20569;-38
2021/01/01 09:57:36;;;;;;;25.90;18.63;;;3.50;99.90;;;;;;5033995;28;20203;-38
2021/01/01 10:00:07;;;;;;;25.70;19.80;;;3.30;99.90;;;;;;5033365;28;20200;-38
2021/01/01 10:02:40;;;;;;;30.97;21.97;;;3.40;99.90;;;;;;5032778;28;20254;-39
2021/01/01 10:05:08;;;;;;;27.93;20.70;;;3.40;99.90;;;;;;5033841;28;20203;-41
2021/01/01 10:07:34;;;;;;;29.83;20.17;;;3.30;99.90;;;;;;5036304;28;20559;-42
2021/01/01 10:10:01;;;;;;;30.40;21.00;;;3.10;99.90;;;;;;5036616;28;20207;-41
2021/01/01 10:12:29;;;;;;;33.33;22.00;;;3.20;99.90;;;;;;5018534;28;20216;-39
2021/01/01 10:14:57;;;;;;;30.67;21.30;;;3.10;99.90;;;;;;5036767;28;20226;-40
2021/01/01 10:17:24;;;;;;;30.63;22.87;;;3.00;99.90;;;;;;5035273;28;20246;-38
2021/01/01 10:19:51;;;;;;;34.17;22.43;;;2.90;99.90;;;;;;5033999;28;20299;-40
2021/01/01 10:22:18;;;;;;;30.05;21.55;;;3.00;99.90;;;;;;5033876;28;20254;-40
2021/01/01 10:24:46;;;;;;;34.30;24.20;;;3.10;99.90;;;;;;5015265;28;20615;-39
2021/01/01 10:27:13;;;;;;;29.27;20.10;;;3.10;99.90;;;;;;5033073;28;20762;-39
2021/01/01 10:29:40;;;;;;;29.93;21.77;;;3.20;99.90;;;;;;5038243;28;20239;-42
2021/01/01 10:32:08;;;;;;;28.77;23.10;;;3.30;99.90;;;;;;5036229;28;20228;-40
2021/01/01 10:34:35;;;;;;;28.90;21.40;;;3.40;99.90;;;;;;5040634;28;20283;-40
2021/01/01 10:37:01;;;;;;;27.77;21.03;;;3.40;99.90;;;;;;5038084;28;20230;-42
2021/01/01 10:39:28;;;;;;;28.43;20.87;;;3.40;99.90;;;;;;5035919;28;20257;-43
2021/01/01 10:41:54;;;;;;;26.43;19.47;;;3.80;99.90;;;;;;5035415;28;20216;-39
2021/01/01 10:44:21;;;;;;;25.13;20.47;;;4.20;99.90;;;;;;5032397;28;20361;-40
2021/01/01 10:46:52;;;;;;;25.80;19.10;;;4.90;99.90;;;;;;5017548;28;20197;-40
2021/01/01 10:49:19;;;;;;;27.55;18.23;;;5.30;99.90;;;;;;5013090;28;20205;-41
2021/01/01 10:51:46;;;;;;;23.90;17.93;;;5.80;99.90;;;;;;5014845;28;20686;-39
2021/01/01 10:54:12;;;;;;;21.27;17.23;;;5.70;99.90;;;;;;5032025;28;20198;-39
2021/01/01 10:56:39;;;;;;;21.27;16.70;;;6.20;99.90;;;;;;5032331;28;20334;-43
2021/01/01 10:59:05;;;;;;;24.20;18.43;;;6.20;99.90;;;;;;5032635;28;20204;-39
2021/01/01 11:01:32;;;;;;;21.70;18.83;;;6.20;99.90;;;;;;5032381;28;20327;-41
2021/01/01 11:03:59;;;;;;;26.73;20.63;;;5.80;99.90;;;;;;5014352;28;20231;-40
2021/01/01 11:06:26;;;;;;;24.00;18.10;;;5.30;99.90;;;;;;5032162;28;20690;-42
2021/01/01 11:08:53;;;;;;;25.00;18.33;;;5.10;99.90;;;;;;5031504;28;20663;-39
2021/01/01 11:11:23;;;;;;;24.80;18.97;;;5.60;99.90;;;;;;5032070;28;20651;-40
2021/01/01 11:13:52;;;;;;;21.23;18.47;;;6.60;99.90;;;;;;5031239;28;20216;-43
2021/01/01 12:22:59;;;;;;;12.25;10.27;;;7.80;99.90;;;;;;5024340;28;20199;-41
2021/01/01 12:25:26;;;;;;;13.32;9.88;;;8.00;99.90;;;;;;5029034;28;20210;-40
2021/01/01 12:27:57;;;;;;;11.23;9.65;;;8.10;99.90;;;;;;5028872;28;20209;-40
2021/01/01 12:30:26;;;;;;;10.45;9.35;;;7.60;99.90;;;;;;5030116;28;20253;-40
2021/01/01 12:32:54;;;;;;;13.60;10.10;;;7.30;99.90;;;;;;5029846;28;20222;-41
2021/01/01 12:35:21;;;;;;;13.60;9.93;;;6.90;99.90;;;;;;5030065;28;20204;-40
2021/01/01 12:37:58;;;;;;;13.93;9.63;;;6.80;99.90;;;;;;5028207;28;20215;-41
2021/01/01 12:40:26;;;;;;;14.88;10.30;;;6.50;99.90;;;;;;5028410;28;20283;-40
2021/01/01 12:42:53;;;;;;;14.40;9.65;;;6.50;99.90;;;;;;5030057;28;20184;-41
2021/01/01 12:45:19;;;;;;;12.65;9.20;;;6.70;99.90;;;;;;5030576;28;20644;-42
2021/01/01 12:47:46;;;;;;;10.00;8.30;;;6.90;99.90;;;;;;5032090;28;20211;-40
2021/01/01 12:50:13;;;;;;;14.27;8.85;;;7.20;99.90;;;;;;5030311;28;20291;-40
2021/01/01 12:52:39;;;;;;;113.20;63.00;;;7.20;99.90;;;;;;5029630;28;20279;-45
2021/01/01 12:55:07;;;;;;;12.07;8.68;;;7.30;99.90;;;;;;5031469;28;20204;-40
2021/01/01 12:57:35;;;;;;;4.82;4.25;;;7.50;99.90;;;;;;5032537;28;20194;-42
2021/01/01 13:00:01;;;;;;;8.25;5.93;;;7.60;99.90;;;;;;5032217;28;20218;-41
2021/01/01 13:02:28;;;;;;;7.07;5.80;;;7.60;99.90;;;;;;5027957;28;20230;-43
2021/01/01 13:04:55;;;;;;;5.72;5.13;;;7.10;99.90;;;;;;5031954;28;20232;-41
2021/01/01 13:07:22;;;;;;;6.93;4.90;;;6.90;99.90;;;;;;5028840;28;20241;-39
2021/01/01 13:09:48;;;;;;;8.27;5.80;;;7.00;99.90;;;;;;5023540;28;20193;-42
2021/01/01 13:12:15;;;;;;;6.82;5.30;;;7.30;99.90;;;;;;5023786;28;20227;-40
2021/01/01 13:14:44;;;;;;;9.10;6.20;;;7.30;99.90;;;;;;5033448;28;20197;-39
2021/01/01 13:17:10;;;;;;;8.57;5.93;;;7.30;99.90;;;;;;5036283;28;20219;-40
2021/01/01 13:19:37;;;;;;;6.40;4.72;;;7.20;99.90;;;;;;5033819;28;20271;-39
2021/01/01 13:22:03;;;;;;;7.47;5.68;;;6.80;99.90;;;;;;5033250;28;20235;-39
2021/01/01 13:24:30;;;;;;;5.33;4.80;;;6.80;99.90;;;;;;5025532;28;20231;-39
2021/01/01 13:26:56;;;;;;;7.40;5.83;;;7.00;99.90;;;;;;5024636;28;20674;-41
2021/01/01 13:29:23;;;;;;;7.57;5.28;;;7.10;99.90;;;;;;5029034;28;20204;-43
2021/01/01 13:31:50;;;;;;;9.45;5.95;;;7.10;99.90;;;;;;5016673;28;20586;-40
2021/01/01 13:34:17;;;;;;;8.60;6.07;;;7.10;99.90;;;;;;5029663;28;20227;-40
2021/01/01 13:36:44;;;;;;;7.03;4.95;;;7.00;99.90;;;;;;5027457;28;20244;-40
2021/01/01 13:39:10;;;;;;;7.43;5.87;;;6.90;99.90;;;;;;5031638;28;20211;-40
2021/01/01 13:41:38;;;;;;;9.03;6.23;;;6.70;99.90;;;;;;5032299;28;20291;-40
2021/01/01 13:44:05;;;;;;;6.78;5.57;;;6.70;99.90;;;;;;5030340;28;20208;-42
2021/01/01 13:46:34;;;;;;;7.23;5.30;;;6.70;99.90;;;;;;5031714;28;20295;-41
2021/01/01 13:49:03;;;;;;;6.78;6.00;;;6.50;99.90;;;;;;5031592;28;20597;-42
2021/01/01 13:51:31;;;;;;;8.90;5.10;;;6.40;99.90;;;;;;5033003;28;20260;-39